sensor_id;sensor_type;location;lat;lon;timestamp;P1;durP1;ratioP1;P2;durP2;ratioP2
3333;SDS011;1679;50.392;8.008;2022-07-22T00:00:22;13.10;;;10.57;;
3333;SDS011;1679;50.392;8.008;2022-07-22T00:02:48;12.50;;;11.13;;
3333;SDS011;1679;50.392;8.008;2022-07-22T00:05:13;15.53;;;11.80;;
3333;SDS011;1679;50.392;8.008;2022-07-22T00:07:39;11.80;;;10.60;;
3333;SDS011;1679;50.392;8.008;2022-07-22T00:10:06;13.17;;;10.23;;
3333;SDS011;1679;50.392;8.008;2022-07-22T00:12:33;10.80;;;9.70;;
3333;SDS011;1679;50.392;8.008;2022-07-22T00:14:59;13.33;;;10.57;;
3333;SDS011;1679;50.392;8.008;2022-07-22T00:17:25;10.13;;;9.10;;
3333;SDS011;1679;50.392;8.008;2022-07-22T00:19:51;9.70;;;8.80;;
3333;SDS011;1679;50.392;8.008;2022-07-22T00:22:16;9.80;;;8.43;;
3333;SDS011;1679;50.392;8.008;2022-07-22T00:24:42;9.93;;;8.17;;
3333;SDS011;1679;50.392;8.008;2022-07-22T00:27:07;8.40;;;7.70;;
3333;SDS011;1679;50.392;8.008;2022-07-22T00:29:33;8.93;;;8.00;;
3333;SDS011;1679;50.392;8.008;2022-07-22T00:31:58;8.57;;;7.77;;
3333;SDS011;1679;50.392;8.008;2022-07-22T00:34:24;9.30;;;8.30;;
3333;SDS011;1679;50.392;8.008;2022-07-22T00:36:50;9.40;;;7.97;;
3333;SDS011;1679;50.392;8.008;2022-07-22T00:39:15;9.40;;;8.07;;
3333;SDS011;1679;50.392;8.008;2022-07-22T00:41:41;9.17;;;7.60;;
3333;SDS011;1679;50.392;8.008;2022-07-22T00:44:07;8.10;;;7.23;;
3333;SDS011;1679;50.392;8.008;2022-07-22T00:46:34;9.97;;;8.00;;
3333;SDS011;1679;50.392;8.008;2022-07-22T00:49:01;9.47;;;7.97;;
3333;SDS011;1679;50.392;8.008;2022-07-22T00:51:28;8.10;;;7.30;;
3333;SDS011;1679;50.392;8.008;2022-07-22T00:53:55;9.17;;;8.37;;
3333;SDS011;1679;50.392;8.008;2022-07-22T00:56:22;7.77;;;7.10;;
3333;SDS011;1679;50.392;8.008;2022-07-22T00:58:49;10.00;;;7.43;;
3333;SDS011;1679;50.392;8.008;2022-07-22T01:01:18;10.70;;;7.77;;
3333;SDS011;1679;50.392;8.008;2022-07-22T01:03:44;10.10;;;8.90;;
3333;SDS011;1679;50.392;8.008;2022-07-22T01:06:09;10.57;;;8.20;;
3333;SDS011;1679;50.392;8.008;2022-07-22T01:08:35;8.27;;;7.50;;
3333;SDS011;1679;50.392;8.008;2022-07-22T01:11:20;9.37;;;8.37;;
3333;SDS011;1679;50.392;8.008;2022-07-22T01:13:46;8.30;;;7.50;;
3333;SDS011;1679;50.392;8.008;2022-07-22T01:16:13;10.23;;;8.60;;
3333;SDS011;1679;50.392;8.008;2022-07-22T01:18:39;12.23;;;8.60;;
3333;SDS011;1679;50.392;8.008;2022-07-22T01:21:06;8.37;;;7.63;;
3333;SDS011;1679;50.392;8.008;2022-07-22T01:23:32;9.17;;;8.23;;
3333;SDS011;1679;50.392;8.008;2022-07-22T01:25:59;12.70;;;8.60;;
3333;SDS011;1679;50.392;8.008;2022-07-22T01:28:25;11.93;;;8.37;;
3333;SDS011;1679;50.392;8.008;2022-07-22T01:30:50;10.07;;;7.97;;
3333;SDS011;1679;50.392;8.008;2022-07-22T01:33:17;9.47;;;8.43;;
3333;SDS011;1679;50.392;8.008;2022-07-22T01:35:46;8.20;;;7.40;;
3333;SDS011;1679;50.392;8.008;2022-07-22T01:38:12;8.63;;;7.87;;
3333;SDS011;1679;50.392;8.008;2022-07-22T01:40:39;8.73;;;7.93;;
3333;SDS011;1679;50.392;8.008;2022-07-22T01:43:05;9.07;;;8.23;;
3333;SDS011;1679;50.392;8.008;2022-07-22T01:45:31;9.63;;;8.73;;
3333;SDS011;1679;50.392;8.008;2022-07-22T01:47:56;8.63;;;7.73;;
3333;SDS011;1679;50.392;8.008;2022-07-22T01:50:23;9.63;;;8.83;;
3333;SDS011;1679;50.392;8.008;2022-07-22T01:52:49;9.33;;;8.33;;
3333;SDS011;1679;50.392;8.008;2022-07-22T01:55:14;9.50;;;8.50;;
3333;SDS011;1679;50.392;8.008;2022-07-22T01:57:40;9.53;;;8.10;;
3333;SDS011;1679;50.392;8.008;2022-07-22T02:00:06;11.73;;;7.90;;
3333;SDS011;1679;50.392;8.008;2022-07-22T02:02:33;8.00;;;7.20;;
3333;SDS011;1679;50.392;8.008;2022-07-22T02:04:59;8.20;;;7.50;;
3333;SDS011;1679;50.392;8.008;2022-07-22T02:07:25;8.67;;;7.87;;
3333;SDS011;1679;50.392;8.008;2022-07-22T02:09:51;7.60;;;7.00;;
3333;SDS011;1679;50.392;8.008;2022-07-22T02:12:18;8.40;;;7.70;;
3333;SDS011;1679;50.392;8.008;2022-07-22T02:14:43;10.50;;;7.53;;
3333;SDS011;1679;50.392;8.008;2022-07-22T02:17:09;7.00;;;6.40;;
3333;SDS011;1679;50.392;8.008;2022-07-22T02:19:35;10.80;;;7.60;;
3333;SDS011;1679;50.392;8.008;2022-07-22T02:22:00;8.57;;;7.77;;
3333;SDS011;1679;50.392;8.008;2022-07-22T02:24:26;9.83;;;7.43;;
3333;SDS011;1679;50.392;8.008;2022-07-22T02:26:51;9.00;;;8.13;;
3333;SDS011;1679;50.392;8.008;2022-07-22T02:29:17;8.37;;;7.57;;
3333;SDS011;1679;50.392;8.008;2022-07-22T02:31:42;11.73;;;8.70;;
3333;SDS011;1679;50.392;8.008;2022-07-22T02:34:08;14.53;;;8.63;;
3333;SDS011;1679;50.392;8.008;2022-07-22T02:36:34;11.20;;;9.47;;
3333;SDS011;1679;50.392;8.008;2022-07-22T02:38:59;10.40;;;9.17;;
3333;SDS011;1679;50.392;8.008;2022-07-22T02:41:25;9.87;;;8.87;;
3333;SDS011;1679;50.392;8.008;2022-07-22T02:43:50;9.47;;;8.50;;
3333;SDS011;1679;50.392;8.008;2022-07-22T02:46:19;11.00;;;9.87;;
3333;SDS011;1679;50.392;8.008;2022-07-22T02:48:50;10.87;;;9.67;;
3333;SDS011;1679;50.392;8.008;2022-07-22T02:51:16;10.53;;;9.40;;
3333;SDS011;1679;50.392;8.008;2022-07-22T02:53:41;13.97;;;11.17;;
3333;SDS011;1679;50.392;8.008;2022-07-22T02:56:07;11.43;;;9.33;;
3333;SDS011;1679;50.392;8.008;2022-07-22T02:58:33;11.70;;;10.20;;
3333;SDS011;1679;50.392;8.008;2022-07-22T03:00:59;11.83;;;10.07;;
3333;SDS011;1679;50.392;8.008;2022-07-22T03:03:24;10.47;;;9.37;;
3333;SDS011;1679;50.392;8.008;2022-07-22T03:05:50;10.37;;;8.87;;
3333;SDS011;1679;50.392;8.008;2022-07-22T03:08:16;11.87;;;10.53;;
3333;SDS011;1679;50.392;8.008;2022-07-22T03:10:42;11.60;;;10.40;;
3333;SDS011;1679;50.392;8.008;2022-07-22T03:13:07;13.87;;;11.90;;
3333;SDS011;1679;50.392;8.008;2022-07-22T03:15:33;12.90;;;11.50;;
3333;SDS011;1679;50.392;8.008;2022-07-22T03:17:58;13.57;;;10.17;;
3333;SDS011;1679;50.392;8.008;2022-07-22T03:20:24;16.00;;;12.97;;
3333;SDS011;1679;50.392;8.008;2022-07-22T03:22:50;14.17;;;12.70;;
3333;SDS011;1679;50.392;8.008;2022-07-22T03:25:15;12.40;;;11.10;;
3333;SDS011;1679;50.392;8.008;2022-07-22T03:27:41;14.40;;;12.00;;
3333;SDS011;1679;50.392;8.008;2022-07-22T03:30:07;15.67;;;12.33;;
3333;SDS011;1679;50.392;8.008;2022-07-22T03:32:32;15.27;;;11.73;;
3333;SDS011;1679;50.392;8.008;2022-07-22T03:34:58;14.80;;;12.77;;
3333;SDS011;1679;50.392;8.008;2022-07-22T03:37:24;15.40;;;11.70;;
3333;SDS011;1679;50.392;8.008;2022-07-22T03:39:49;16.70;;;12.33;;
3333;SDS011;1679;50.392;8.008;2022-07-22T03:42:15;16.43;;;13.20;;
3333;SDS011;1679;50.392;8.008;2022-07-22T03:44:40;15.10;;;13.40;;
3333;SDS011;1679;50.392;8.008;2022-07-22T03:47:06;16.37;;;13.87;;
3333;SDS011;1679;50.392;8.008;2022-07-22T03:49:32;17.70;;;13.10;;
3333;SDS011;1679;50.392;8.008;2022-07-22T03:51:58;17.30;;;13.27;;
3333;SDS011;1679;50.392;8.008;2022-07-22T03:54:23;19.57;;;13.97;;
3333;SDS011;1679;50.392;8.008;2022-07-22T03:56:49;19.67;;;15.37;;
3333;SDS011;1679;50.392;8.008;2022-07-22T03:59:15;16.03;;;14.07;;
3333;SDS011;1679;50.392;8.008;2022-07-22T04:01:41;20.70;;;14.83;;
3333;SDS011;1679;50.392;8.008;2022-07-22T04:04:06;16.87;;;13.13;;
3333;SDS011;1679;50.392;8.008;2022-07-22T04:06:32;17.57;;;14.60;;
3333;SDS011;1679;50.392;8.008;2022-07-22T04:08:58;16.30;;;13.97;;
3333;SDS011;1679;50.392;8.008;2022-07-22T04:11:24;17.97;;;14.77;;
3333;SDS011;1679;50.392;8.008;2022-07-22T04:13:49;16.03;;;13.40;;
3333;SDS011;1679;50.392;8.008;2022-07-22T04:16:15;16.50;;;13.40;;
3333;SDS011;1679;50.392;8.008;2022-07-22T04:18:41;16.43;;;13.27;;
3333;SDS011;1679;50.392;8.008;2022-07-22T04:21:06;19.57;;;14.90;;
3333;SDS011;1679;50.392;8.008;2022-07-22T04:23:32;21.23;;;15.37;;
3333;SDS011;1679;50.392;8.008;2022-07-22T04:25:58;15.20;;;12.60;;
3333;SDS011;1679;50.392;8.008;2022-07-22T04:28:23;16.47;;;13.60;;
3333;SDS011;1679;50.392;8.008;2022-07-22T04:30:49;18.10;;;14.30;;
3333;SDS011;1679;50.392;8.008;2022-07-22T04:33:14;22.20;;;17.40;;
3333;SDS011;1679;50.392;8.008;2022-07-22T04:35:40;18.47;;;14.53;;
3333;SDS011;1679;50.392;8.008;2022-07-22T04:38:05;17.10;;;13.63;;
3333;SDS011;1679;50.392;8.008;2022-07-22T04:40:31;18.73;;;14.43;;
3333;SDS011;1679;50.392;8.008;2022-07-22T04:42:57;16.73;;;13.90;;
3333;SDS011;1679;50.392;8.008;2022-07-22T04:45:22;18.80;;;13.70;;
3333;SDS011;1679;50.392;8.008;2022-07-22T04:47:48;21.00;;;14.40;;
3333;SDS011;1679;50.392;8.008;2022-07-22T04:50:13;17.60;;;14.77;;
3333;SDS011;1679;50.392;8.008;2022-07-22T04:52:39;20.90;;;14.23;;
3333;SDS011;1679;50.392;8.008;2022-07-22T04:55:04;17.63;;;14.33;;
3333;SDS011;1679;50.392;8.008;2022-07-22T04:57:30;24.00;;;15.30;;
3333;SDS011;1679;50.392;8.008;2022-07-22T04:59:56;22.67;;;16.60;;
3333;SDS011;1679;50.392;8.008;2022-07-22T05:02:22;18.87;;;15.33;;
3333;SDS011;1679;50.392;8.008;2022-07-22T05:04:47;20.37;;;16.60;;
3333;SDS011;1679;50.392;8.008;2022-07-22T05:07:13;18.67;;;15.73;;
3333;SDS011;1679;50.392;8.008;2022-07-22T05:09:39;18.13;;;16.00;;
3333;SDS011;1679;50.392;8.008;2022-07-22T05:12:04;16.07;;;14.10;;
3333;SDS011;1679;50.392;8.008;2022-07-22T05:14:31;17.57;;;15.10;;
3333;SDS011;1679;50.392;8.008;2022-07-22T05:16:57;19.00;;;14.90;;
3333;SDS011;1679;50.392;8.008;2022-07-22T05:19:23;23.20;;;16.20;;
3333;SDS011;1679;50.392;8.008;2022-07-22T05:21:48;19.83;;;14.00;;
3333;SDS011;1679;50.392;8.008;2022-07-22T05:24:14;19.20;;;15.70;;
3333;SDS011;1679;50.392;8.008;2022-07-22T05:26:39;18.80;;;15.40;;
3333;SDS011;1679;50.392;8.008;2022-07-22T05:29:05;19.80;;;14.90;;
3333;SDS011;1679;50.392;8.008;2022-07-22T05:31:31;23.50;;;16.57;;
3333;SDS011;1679;50.392;8.008;2022-07-22T05:33:57;18.97;;;15.70;;
3333;SDS011;1679;50.392;8.008;2022-07-22T05:36:22;17.60;;;13.90;;
3333;SDS011;1679;50.392;8.008;2022-07-22T05:38:48;22.07;;;13.77;;
3333;SDS011;1679;50.392;8.008;2022-07-22T05:41:13;17.17;;;13.60;;
3333;SDS011;1679;50.392;8.008;2022-07-22T05:43:39;16.93;;;13.20;;
3333;SDS011;1679;50.392;8.008;2022-07-22T05:46:05;15.30;;;13.33;;
3333;SDS011;1679;50.392;8.008;2022-07-22T05:48:32;17.37;;;12.53;;
3333;SDS011;1679;50.392;8.008;2022-07-22T05:50:58;17.53;;;12.33;;
3333;SDS011;1679;50.392;8.008;2022-07-22T05:53:23;12.97;;;10.97;;
3333;SDS011;1679;50.392;8.008;2022-07-22T05:55:49;15.00;;;12.10;;
3333;SDS011;1679;50.392;8.008;2022-07-22T05:58:15;12.97;;;11.40;;
3333;SDS011;1679;50.392;8.008;2022-07-22T06:00:40;10.90;;;9.63;;
3333;SDS011;1679;50.392;8.008;2022-07-22T06:03:06;11.00;;;9.90;;
3333;SDS011;1679;50.392;8.008;2022-07-22T06:05:32;12.33;;;11.03;;
3333;SDS011;1679;50.392;8.008;2022-07-22T06:07:58;11.03;;;9.40;;
3333;SDS011;1679;50.392;8.008;2022-07-22T06:10:23;14.40;;;11.63;;
3333;SDS011;1679;50.392;8.008;2022-07-22T06:12:49;12.00;;;9.33;;
3333;SDS011;1679;50.392;8.008;2022-07-22T06:15:14;15.63;;;10.73;;
3333;SDS011;1679;50.392;8.008;2022-07-22T06:17:40;13.47;;;10.73;;
3333;SDS011;1679;50.392;8.008;2022-07-22T06:20:05;11.97;;;10.43;;
3333;SDS011;1679;50.392;8.008;2022-07-22T06:22:31;11.20;;;9.33;;
3333;SDS011;1679;50.392;8.008;2022-07-22T06:24:57;10.47;;;9.10;;
3333;SDS011;1679;50.392;8.008;2022-07-22T06:27:23;11.23;;;9.63;;
3333;SDS011;1679;50.392;8.008;2022-07-22T06:29:48;10.53;;;9.43;;
3333;SDS011;1679;50.392;8.008;2022-07-22T06:32:14;11.27;;;9.10;;
3333;SDS011;1679;50.392;8.008;2022-07-22T06:34:39;9.07;;;8.13;;
3333;SDS011;1679;50.392;8.008;2022-07-22T06:37:05;9.00;;;8.10;;
3333;SDS011;1679;50.392;8.008;2022-07-22T06:39:30;9.37;;;7.63;;
3333;SDS011;1679;50.392;8.008;2022-07-22T06:41:56;9.40;;;8.20;;
3333;SDS011;1679;50.392;8.008;2022-07-22T06:44:22;8.83;;;8.03;;
3333;SDS011;1679;50.392;8.008;2022-07-22T06:46:47;8.97;;;8.03;;
3333;SDS011;1679;50.392;8.008;2022-07-22T06:49:13;11.60;;;8.90;;
3333;SDS011;1679;50.392;8.008;2022-07-22T06:51:38;11.57;;;8.97;;
3333;SDS011;1679;50.392;8.008;2022-07-22T06:54:04;9.30;;;8.40;;
3333;SDS011;1679;50.392;8.008;2022-07-22T06:56:29;8.82;;;8.00;;
3333;SDS011;1679;50.392;8.008;2022-07-22T06:58:55;8.90;;;8.07;;
3333;SDS011;1679;50.392;8.008;2022-07-22T07:01:21;9.50;;;8.50;;
3333;SDS011;1679;50.392;8.008;2022-07-22T07:03:46;9.27;;;7.77;;
3333;SDS011;1679;50.392;8.008;2022-07-22T07:06:12;10.07;;;8.20;;
3333;SDS011;1679;50.392;8.008;2022-07-22T07:08:38;8.50;;;7.60;;
3333;SDS011;1679;50.392;8.008;2022-07-22T07:11:05;9.60;;;8.03;;
3333;SDS011;1679;50.392;8.008;2022-07-22T07:13:30;9.57;;;8.57;;
3333;SDS011;1679;50.392;8.008;2022-07-22T07:15:57;10.87;;;8.90;;
3333;SDS011;1679;50.392;8.008;2022-07-22T07:18:23;9.50;;;8.50;;
3333;SDS011;1679;50.392;8.008;2022-07-22T07:20:48;8.67;;;7.87;;
3333;SDS011;1679;50.392;8.008;2022-07-22T07:23:14;10.07;;;7.70;;
3333;SDS011;1679;50.392;8.008;2022-07-22T07:25:40;8.60;;;7.83;;
3333;SDS011;1679;50.392;8.008;2022-07-22T07:28:05;7.67;;;6.93;;
3333;SDS011;1679;50.392;8.008;2022-07-22T07:30:31;8.23;;;7.40;;
3333;SDS011;1679;50.392;8.008;2022-07-22T07:32:57;7.07;;;6.47;;
3333;SDS011;1679;50.392;8.008;2022-07-22T07:35:25;7.73;;;6.73;;
3333;SDS011;1679;50.392;8.008;2022-07-22T07:37:51;8.27;;;7.47;;
3333;SDS011;1679;50.392;8.008;2022-07-22T07:40:17;8.33;;;7.63;;
3333;SDS011;1679;50.392;8.008;2022-07-22T07:42:43;8.50;;;7.70;;
3333;SDS011;1679;50.392;8.008;2022-07-22T07:45:08;8.10;;;7.30;;
3333;SDS011;1679;50.392;8.008;2022-07-22T07:47:34;8.37;;;7.53;;
3333;SDS011;1679;50.392;8.008;2022-07-22T07:50:00;8.27;;;7.47;;
3333;SDS011;1679;50.392;8.008;2022-07-22T07:52:27;8.67;;;7.87;;
3333;SDS011;1679;50.392;8.008;2022-07-22T07:54:53;9.00;;;7.77;;
3333;SDS011;1679;50.392;8.008;2022-07-22T07:57:20;9.67;;;8.40;;
3333;SDS011;1679;50.392;8.008;2022-07-22T07:59:46;7.97;;;7.27;;
3333;SDS011;1679;50.392;8.008;2022-07-22T08:02:12;10.77;;;8.67;;
3333;SDS011;1679;50.392;8.008;2022-07-22T08:04:37;8.07;;;7.27;;
3333;SDS011;1679;50.392;8.008;2022-07-22T08:07:03;7.60;;;7.00;;
3333;SDS011;1679;50.392;8.008;2022-07-22T08:09:30;9.53;;;7.00;;
3333;SDS011;1679;50.392;8.008;2022-07-22T08:11:56;7.60;;;6.93;;
3333;SDS011;1679;50.392;8.008;2022-07-22T08:14:21;8.03;;;7.20;;
3333;SDS011;1679;50.392;8.008;2022-07-22T08:16:48;7.70;;;7.00;;
3333;SDS011;1679;50.392;8.008;2022-07-22T08:19:14;7.90;;;7.10;;
3333;SDS011;1679;50.392;8.008;2022-07-22T08:21:40;7.73;;;6.70;;
3333;SDS011;1679;50.392;8.008;2022-07-22T08:24:08;8.00;;;7.20;;
3333;SDS011;1679;50.392;8.008;2022-07-22T08:26:34;7.77;;;6.97;;
3333;SDS011;1679;50.392;8.008;2022-07-22T08:29:00;8.50;;;7.73;;
3333;SDS011;1679;50.392;8.008;2022-07-22T08:31:26;7.87;;;7.13;;
3333;SDS011;1679;50.392;8.008;2022-07-22T08:33:52;8.00;;;7.37;;
3333;SDS011;1679;50.392;8.008;2022-07-22T08:36:18;8.17;;;7.47;;
3333;SDS011;1679;50.392;8.008;2022-07-22T08:38:44;7.10;;;6.60;;
3333;SDS011;1679;50.392;8.008;2022-07-22T08:41:10;7.63;;;6.93;;
3333;SDS011;1679;50.392;8.008;2022-07-22T08:43:37;8.63;;;6.90;;
3333;SDS011;1679;50.392;8.008;2022-07-22T08:46:06;7.70;;;7.00;;
3333;SDS011;1679;50.392;8.008;2022-07-22T08:48:32;8.67;;;7.03;;
3333;SDS011;1679;50.392;8.008;2022-07-22T08:50:58;9.17;;;8.27;;
3333;SDS011;1679;50.392;8.008;2022-07-22T08:53:23;8.03;;;7.33;;
3333;SDS011;1679;50.392;8.008;2022-07-22T08:55:49;8.70;;;7.90;;
3333;SDS011;1679;50.392;8.008;2022-07-22T08:58:15;11.23;;;7.80;;
3333;SDS011;1679;50.392;8.008;2022-07-22T09:00:41;7.93;;;7.23;;
3333;SDS011;1679;50.392;8.008;2022-07-22T09:03:20;8.37;;;7.57;;
3333;SDS011;1679;50.392;8.008;2022-07-22T09:05:53;7.97;;;7.23;;
3333;SDS011;1679;50.392;8.008;2022-07-22T09:08:19;7.10;;;6.50;;
3333;SDS011;1679;50.392;8.008;2022-07-22T09:10:46;7.23;;;6.63;;
3333;SDS011;1679;50.392;8.008;2022-07-22T09:13:12;7.30;;;6.80;;
3333;SDS011;1679;50.392;8.008;2022-07-22T09:15:50;7.43;;;6.83;;
3333;SDS011;1679;50.392;8.008;2022-07-22T09:18:18;7.50;;;6.80;;
3333;SDS011;1679;50.392;8.008;2022-07-22T09:20:44;7.50;;;6.80;;
3333;SDS011;1679;50.392;8.008;2022-07-22T09:23:17;7.57;;;6.90;;
3333;SDS011;1679;50.392;8.008;2022-07-22T09:25:46;6.67;;;6.17;;
3333;SDS011;1679;50.392;8.008;2022-07-22T09:28:14;7.87;;;7.07;;
3333;SDS011;1679;50.392;8.008;2022-07-22T09:30:53;7.10;;;6.50;;
3333;SDS011;1679;50.392;8.008;2022-07-22T09:33:20;7.30;;;6.73;;
3333;SDS011;1679;50.392;8.008;2022-07-22T09:35:47;11.63;;;7.10;;
3333;SDS011;1679;50.392;8.008;2022-07-22T09:38:14;6.93;;;6.40;;
3333;SDS011;1679;50.392;8.008;2022-07-22T09:40:42;6.60;;;6.13;;
3333;SDS011;1679;50.392;8.008;2022-07-22T09:43:13;6.53;;;5.93;;
3333;SDS011;1679;50.392;8.008;2022-07-22T09:45:49;7.90;;;7.20;;
3333;SDS011;1679;50.392;8.008;2022-07-22T09:48:19;6.80;;;6.20;;
3333;SDS011;1679;50.392;8.008;2022-07-22T09:50:46;8.53;;;7.47;;
3333;SDS011;1679;50.392;8.008;2022-07-22T09:53:12;7.63;;;6.93;;
3333;SDS011;1679;50.392;8.008;2022-07-22T09:55:39;7.80;;;7.10;;
3333;SDS011;1679;50.392;8.008;2022-07-22T09:58:05;7.47;;;6.87;;
3333;SDS011;1679;50.392;8.008;2022-07-22T10:00:32;7.60;;;6.93;;
3333;SDS011;1679;50.392;8.008;2022-07-22T10:03:00;7.10;;;6.50;;
3333;SDS011;1679;50.392;8.008;2022-07-22T10:05:39;8.03;;;7.33;;
3333;SDS011;1679;50.392;8.008;2022-07-22T10:08:07;11.43;;;6.53;;
3333;SDS011;1679;50.392;8.008;2022-07-22T10:10:33;7.10;;;6.57;;
3333;SDS011;1679;50.392;8.008;2022-07-22T10:13:01;7.00;;;6.50;;
3333;SDS011;1679;50.392;8.008;2022-07-22T10:15:28;7.50;;;6.90;;
3333;SDS011;1679;50.392;8.008;2022-07-22T10:17:55;7.43;;;6.73;;
3333;SDS011;1679;50.392;8.008;2022-07-22T10:20:25;7.93;;;7.20;;
3333;SDS011;1679;50.392;8.008;2022-07-22T10:22:57;8.30;;;7.70;;
3333;SDS011;1679;50.392;8.008;2022-07-22T10:25:28;7.10;;;6.60;;
3333;SDS011;1679;50.392;8.008;2022-07-22T10:28:02;7.17;;;6.67;;
3333;SDS011;1679;50.392;8.008;2022-07-22T10:33:02;7.47;;;6.57;;
3333;SDS011;1679;50.392;8.008;2022-07-22T10:35:28;7.67;;;7.03;;
3333;SDS011;1679;50.392;8.008;2022-07-22T10:37:55;6.83;;;6.23;;
3333;SDS011;1679;50.392;8.008;2022-07-22T10:40:23;7.30;;;6.70;;
3333;SDS011;1679;50.392;8.008;2022-07-22T10:45:28;6.70;;;6.20;;
3333;SDS011;1679;50.392;8.008;2022-07-22T10:47:58;7.40;;;6.80;;
3333;SDS011;1679;50.392;8.008;2022-07-22T10:55:35;7.70;;;7.07;;
3333;SDS011;1679;50.392;8.008;2022-07-22T11:01:00;6.40;;;6.00;;
3333;SDS011;1679;50.392;8.008;2022-07-22T11:03:34;7.23;;;6.63;;
3333;SDS011;1679;50.392;8.008;2022-07-22T11:08:41;6.63;;;6.13;;
3333;SDS011;1679;50.392;8.008;2022-07-22T11:11:08;6.67;;;6.17;;
3333;SDS011;1679;50.392;8.008;2022-07-22T11:13:35;7.17;;;6.43;;
3333;SDS011;1679;50.392;8.008;2022-07-22T11:21:30;7.90;;;7.20;;
3333;SDS011;1679;50.392;8.008;2022-07-22T11:23:58;6.70;;;6.10;;
3333;SDS011;1679;50.392;8.008;2022-07-22T11:26:33;8.40;;;7.60;;
3333;SDS011;1679;50.392;8.008;2022-07-22T11:29:02;7.13;;;6.50;;
3333;SDS011;1679;50.392;8.008;2022-07-22T11:31:28;7.53;;;6.93;;
3333;SDS011;1679;50.392;8.008;2022-07-22T11:34:03;6.60;;;6.13;;
3333;SDS011;1679;50.392;8.008;2022-07-22T11:36:37;8.03;;;6.90;;
3333;SDS011;1679;50.392;8.008;2022-07-22T11:39:06;8.30;;;7.60;;
3333;SDS011;1679;50.392;8.008;2022-07-22T11:41:32;7.57;;;6.97;;
3333;SDS011;1679;50.392;8.008;2022-07-22T11:43:58;7.50;;;7.00;;
3333;SDS011;1679;50.392;8.008;2022-07-22T11:46:24;7.33;;;6.63;;
3333;SDS011;1679;50.392;8.008;2022-07-22T11:48:51;7.90;;;7.20;;
3333;SDS011;1679;50.392;8.008;2022-07-22T11:51:18;7.87;;;7.17;;
3333;SDS011;1679;50.392;8.008;2022-07-22T11:53:44;7.73;;;7.17;;
3333;SDS011;1679;50.392;8.008;2022-07-22T11:56:10;8.27;;;7.67;;
3333;SDS011;1679;50.392;8.008;2022-07-22T12:01:10;8.03;;;7.23;;
3333;SDS011;1679;50.392;8.008;2022-07-22T12:03:39;7.47;;;6.73;;
3333;SDS011;1679;50.392;8.008;2022-07-22T12:06:07;7.77;;;7.23;;
3333;SDS011;1679;50.392;8.008;2022-07-22T12:08:36;7.17;;;6.57;;
3333;SDS011;1679;50.392;8.008;2022-07-22T12:11:09;6.50;;;6.10;;
3333;SDS011;1679;50.392;8.008;2022-07-22T12:13:36;7.30;;;6.80;;
3333;SDS011;1679;50.392;8.008;2022-07-22T12:16:22;7.70;;;7.10;;
3333;SDS011;1679;50.392;8.008;2022-07-22T12:18:54;7.00;;;6.50;;
3333;SDS011;1679;50.392;8.008;2022-07-22T12:21:26;8.30;;;7.60;;
3333;SDS011;1679;50.392;8.008;2022-07-22T12:23:53;7.93;;;7.13;;
3333;SDS011;1679;50.392;8.008;2022-07-22T12:26:37;7.37;;;6.77;;
3333;SDS011;1679;50.392;8.008;2022-07-22T12:29:16;7.43;;;6.73;;
3333;SDS011;1679;50.392;8.008;2022-07-22T12:31:44;7.30;;;6.70;;
3333;SDS011;1679;50.392;8.008;2022-07-22T12:34:11;6.27;;;5.80;;
3333;SDS011;1679;50.392;8.008;2022-07-22T12:36:38;7.80;;;7.00;;
3333;SDS011;1679;50.392;8.008;2022-07-22T12:39:14;7.67;;;6.93;;
3333;SDS011;1679;50.392;8.008;2022-07-22T12:41:48;7.90;;;7.30;;
3333;SDS011;1679;50.392;8.008;2022-07-22T12:44:17;7.43;;;6.90;;
3333;SDS011;1679;50.392;8.008;2022-07-22T12:46:45;7.00;;;6.60;;
3333;SDS011;1679;50.392;8.008;2022-07-22T12:49:11;8.47;;;6.97;;
3333;SDS011;1679;50.392;8.008;2022-07-22T12:51:37;7.07;;;6.57;;
3333;SDS011;1679;50.392;8.008;2022-07-22T12:54:03;6.87;;;6.37;;
3333;SDS011;1679;50.392;8.008;2022-07-22T12:56:28;8.80;;;6.57;;
3333;SDS011;1679;50.392;8.008;2022-07-22T12:58:54;7.43;;;6.87;;
3333;SDS011;1679;50.392;8.008;2022-07-22T13:01:19;7.70;;;6.93;;
3333;SDS011;1679;50.392;8.008;2022-07-22T13:03:45;6.70;;;6.10;;
3333;SDS011;1679;50.392;8.008;2022-07-22T13:06:10;6.90;;;6.30;;
3333;SDS011;1679;50.392;8.008;2022-07-22T13:08:36;6.87;;;6.37;;
3333;SDS011;1679;50.392;8.008;2022-07-22T13:11:02;8.03;;;7.33;;
3333;SDS011;1679;50.392;8.008;2022-07-22T13:13:28;8.03;;;7.27;;
3333;SDS011;1679;50.392;8.008;2022-07-22T13:15:54;7.50;;;6.90;;
3333;SDS011;1679;50.392;8.008;2022-07-22T13:18:19;7.20;;;6.60;;
3333;SDS011;1679;50.392;8.008;2022-07-22T13:20:45;6.30;;;5.80;;
3333;SDS011;1679;50.392;8.008;2022-07-22T13:23:12;7.43;;;6.83;;
3333;SDS011;1679;50.392;8.008;2022-07-22T13:25:37;7.63;;;6.90;;
3333;SDS011;1679;50.392;8.008;2022-07-22T13:28:03;8.20;;;7.40;;
3333;SDS011;1679;50.392;8.008;2022-07-22T13:30:29;7.50;;;6.90;;
3333;SDS011;1679;50.392;8.008;2022-07-22T13:32:55;8.23;;;7.50;;
3333;SDS011;1679;50.392;8.008;2022-07-22T13:35:21;8.20;;;7.40;;
3333;SDS011;1679;50.392;8.008;2022-07-22T13:37:47;7.97;;;7.43;;
3333;SDS011;1679;50.392;8.008;2022-07-22T13:40:13;7.97;;;7.30;;
3333;SDS011;1679;50.392;8.008;2022-07-22T13:42:39;7.70;;;7.10;;
3333;SDS011;1679;50.392;8.008;2022-07-22T13:45:05;7.70;;;7.10;;
3333;SDS011;1679;50.392;8.008;2022-07-22T13:47:32;8.37;;;7.57;;
3333;SDS011;1679;50.392;8.008;2022-07-22T13:49:57;7.87;;;7.27;;
3333;SDS011;1679;50.392;8.008;2022-07-22T13:52:23;7.77;;;6.83;;
3333;SDS011;1679;50.392;8.008;2022-07-22T13:54:49;7.57;;;7.07;;
3333;SDS011;1679;50.392;8.008;2022-07-22T13:57:16;7.10;;;6.50;;
3333;SDS011;1679;50.392;8.008;2022-07-22T13:59:41;7.63;;;6.93;;
3333;SDS011;1679;50.392;8.008;2022-07-22T14:02:07;7.00;;;6.40;;
3333;SDS011;1679;50.392;8.008;2022-07-22T14:04:35;7.50;;;7.00;;
3333;SDS011;1679;50.392;8.008;2022-07-22T14:07:00;7.97;;;7.37;;
3333;SDS011;1679;50.392;8.008;2022-07-22T14:09:26;8.10;;;7.50;;
3333;SDS011;1679;50.392;8.008;2022-07-22T14:11:52;8.10;;;7.27;;
3333;SDS011;1679;50.392;8.008;2022-07-22T14:14:18;7.67;;;7.10;;
3333;SDS011;1679;50.392;8.008;2022-07-22T14:16:43;7.57;;;6.97;;
3333;SDS011;1679;50.392;8.008;2022-07-22T14:19:10;10.47;;;8.00;;
3333;SDS011;1679;50.392;8.008;2022-07-22T14:21:37;7.33;;;6.70;;
3333;SDS011;1679;50.392;8.008;2022-07-22T14:24:04;7.20;;;6.57;;
3333;SDS011;1679;50.392;8.008;2022-07-22T14:26:31;7.33;;;6.80;;
3333;SDS011;1679;50.392;8.008;2022-07-22T14:28:57;7.30;;;6.57;;
3333;SDS011;1679;50.392;8.008;2022-07-22T14:31:23;8.47;;;7.80;;
3333;SDS011;1679;50.392;8.008;2022-07-22T14:33:49;8.53;;;7.73;;
3333;SDS011;1679;50.392;8.008;2022-07-22T14:36:15;8.67;;;8.00;;
3333;SDS011;1679;50.392;8.008;2022-07-22T14:38:40;8.33;;;7.63;;
3333;SDS011;1679;50.392;8.008;2022-07-22T14:41:06;32.70;;;9.23;;
3333;SDS011;1679;50.392;8.008;2022-07-22T14:43:32;8.07;;;7.47;;
3333;SDS011;1679;50.392;8.008;2022-07-22T14:45:59;7.83;;;7.07;;
3333;SDS011;1679;50.392;8.008;2022-07-22T14:48:26;8.40;;;6.97;;
3333;SDS011;1679;50.392;8.008;2022-07-22T14:50:52;7.70;;;7.00;;
3333;SDS011;1679;50.392;8.008;2022-07-22T14:53:17;7.70;;;7.17;;
3333;SDS011;1679;50.392;8.008;2022-07-22T14:55:43;7.20;;;6.70;;
3333;SDS011;1679;50.392;8.008;2022-07-22T14:58:09;8.07;;;7.27;;
3333;SDS011;1679;50.392;8.008;2022-07-22T15:00:34;7.83;;;7.10;;
3333;SDS011;1679;50.392;8.008;2022-07-22T15:03:00;7.73;;;7.03;;
3333;SDS011;1679;50.392;8.008;2022-07-22T15:05:25;8.10;;;7.50;;
3333;SDS011;1679;50.392;8.008;2022-07-22T15:07:51;8.17;;;7.57;;
3333;SDS011;1679;50.392;8.008;2022-07-22T15:10:17;9.33;;;7.70;;
3333;SDS011;1679;50.392;8.008;2022-07-22T15:12:43;9.07;;;7.53;;
3333;SDS011;1679;50.392;8.008;2022-07-22T15:15:09;7.93;;;7.13;;
3333;SDS011;1679;50.392;8.008;2022-07-22T15:17:35;7.40;;;6.90;;
3333;SDS011;1679;50.392;8.008;2022-07-22T15:20:03;7.73;;;7.13;;
3333;SDS011;1679;50.392;8.008;2022-07-22T15:22:30;8.03;;;7.30;;
3333;SDS011;1679;50.392;8.008;2022-07-22T15:24:56;9.67;;;8.23;;
3333;SDS011;1679;50.392;8.008;2022-07-22T15:27:21;8.07;;;7.30;;